createdAt,value
2019-04-07T00:02:16.377Z,88.30
2019-04-07T00:04:46.678Z,88.70
2019-04-07T00:07:17.267Z,88.80
2019-04-07T00:09:46.648Z,88.90
2019-04-07T00:12:16.317Z,88.50
2019-04-07T00:14:45.773Z,88.30
2019-04-07T00:17:15.085Z,88.60
2019-04-07T00:19:44.754Z,88.60
2019-04-07T00:22:14.175Z,88.80
2019-04-07T00:24:44.035Z,88.60
2019-04-07T00:27:13.436Z,88.20
2019-04-07T00:29:42.758Z,88.10
2019-04-07T00:32:12.084Z,88.00
2019-04-07T00:34:41.526Z,88.10
2019-04-07T00:37:10.882Z,88.40
2019-04-07T00:39:40.275Z,88.20
2019-04-07T00:42:09.586Z,88.30
2019-04-07T00:44:39.150Z,88.40
2019-04-07T00:47:08.459Z,88.20
2019-04-07T00:49:37.756Z,88.70
2019-04-07T00:52:09.411Z,88.70
2019-04-07T00:54:39.138Z,88.70
2019-04-07T00:57:08.607Z,88.80
2019-04-07T00:59:38.579Z,88.90
2019-04-07T01:02:08.003Z,89.20
2019-04-07T01:04:37.311Z,89.50
2019-04-07T01:07:06.632Z,89.60
2019-04-07T01:09:35.952Z,89.20
2019-04-07T01:12:06.035Z,88.90
2019-04-07T01:14:35.562Z,88.70
2019-04-07T01:17:04.867Z,88.70
2019-04-07T01:19:34.439Z,88.80
2019-04-07T01:22:03.926Z,88.60
2019-04-07T01:24:34.425Z,88.70
2019-04-07T01:27:03.990Z,88.60
2019-04-07T01:29:34.155Z,88.50
2019-04-07T01:32:03.802Z,88.60
2019-04-07T01:34:33.197Z,88.70
2019-04-07T01:37:02.495Z,89.00
2019-04-07T01:39:32.221Z,89.00
2019-04-07T01:42:03.865Z,89.20
2019-04-07T01:44:35.543Z,89.10
2019-04-07T01:47:12.534Z,89.00
2019-04-07T01:49:49.260Z,89.00
2019-04-07T01:52:23.644Z,88.90
2019-04-07T01:55:00.367Z,88.80
2019-04-07T01:57:31.392Z,88.90
2019-04-07T02:00:02.985Z,89.20
2019-04-07T02:02:34.186Z,89.40
2019-04-07T02:05:06.753Z,89.10
2019-04-07T02:07:54.401Z,89.30
2019-04-07T02:10:34.325Z,89.00
2019-04-07T02:13:05.899Z,89.00
2019-04-07T02:15:37.215Z,88.90
2019-04-07T02:18:14.756Z,88.80
2019-04-07T02:20:55.718Z,88.90
2019-04-07T02:23:45.073Z,89.20
2019-04-07T02:26:25.342Z,89.50
2019-04-07T02:29:11.685Z,89.50
2019-04-07T02:31:42.678Z,89.20
2019-04-07T02:34:17.748Z,88.90
2019-04-07T02:37:04.991Z,88.70
2019-04-07T02:39:42.272Z,88.80
2019-04-07T02:42:15.920Z,89.30
2019-04-07T02:45:03.735Z,89.20
2019-04-07T02:47:44.340Z,89.10
2019-04-07T02:50:26.231Z,89.10
2019-04-07T02:53:03.324Z,89.50
2019-04-07T02:55:35.489Z,89.40
2019-04-07T02:58:18.139Z,89.20
2019-04-07T03:00:52.302Z,89.00
2019-04-07T03:03:23.329Z,89.10
2019-04-07T03:06:03.602Z,89.00
2019-04-07T03:08:35.596Z,89.10
2019-04-07T03:11:12.448Z,88.90
2019-04-07T03:13:52.236Z,88.90
2019-04-07T03:16:40.505Z,89.30
2019-04-07T03:19:26.422Z,89.30
2019-04-07T03:22:00.964Z,89.30
2019-04-07T03:24:32.445Z,89.10
2019-04-07T03:27:04.336Z,89.00
2019-04-07T03:29:41.748Z,88.70
2019-04-07T03:32:18.740Z,88.60
2019-04-07T03:35:06.197Z,88.90
2019-04-07T03:37:43.392Z,89.30
2019-04-07T03:40:22.284Z,89.30
2019-04-07T03:43:05.278Z,89.40
2019-04-07T03:45:52.584Z,89.30
2019-04-07T03:48:30.393Z,89.40
2019-04-07T03:51:18.949Z,89.20
2019-04-07T03:54:05.171Z,89.20
2019-04-07T03:56:37.194Z,89.50
2019-04-07T03:59:24.961Z,90.00
2019-04-07T04:02:12.295Z,89.80
2019-04-07T04:04:46.445Z,89.90
2019-04-07T04:07:26.626Z,89.80
2019-04-07T04:09:50.054Z,89.70
2019-04-07T04:12:37.416Z,89.40
2019-04-07T04:15:20.067Z,89.40
2019-04-07T04:17:49.707Z,89.10
2019-04-07T04:20:19.748Z,89.10
2019-04-07T04:22:49.108Z,89.20
2019-04-07T04:25:19.137Z,89.20
2019-04-07T04:27:48.731Z,89.40
2019-04-07T04:30:24.054Z,89.10
2019-04-07T04:32:54.015Z,89.20
2019-04-07T04:35:24.553Z,89.10
2019-04-07T04:37:55.512Z,89.20
2019-04-07T04:40:32.481Z,89.20
2019-04-07T04:43:06.057Z,89.40
2019-04-07T04:45:36.262Z,89.40
2019-04-07T04:48:06.829Z,89.40
2019-04-07T04:50:37.252Z,89.40
2019-04-07T04:53:06.800Z,89.10
2019-04-07T04:55:37.018Z,89.10
2019-04-07T04:58:07.268Z,89.20
2019-04-07T05:00:36.617Z,89.30
2019-04-07T05:03:05.919Z,89.30
2019-04-07T05:05:35.634Z,89.40
2019-04-07T05:08:05.573Z,89.30
2019-04-07T05:10:35.918Z,89.10
2019-04-07T05:13:05.234Z,89.10
2019-04-07T05:15:35.110Z,88.90
2019-04-07T05:18:05.218Z,88.90
2019-04-07T05:20:40.858Z,88.70
2019-04-07T05:23:11.352Z,88.40
2019-04-07T05:25:40.767Z,88.40
2019-04-07T05:28:10.114Z,88.30
2019-04-07T05:30:39.517Z,88.50
2019-04-07T05:33:08.908Z,88.80
2019-04-07T05:35:38.257Z,88.70
2019-04-07T05:38:08.351Z,88.80
2019-04-07T05:40:38.003Z,88.60
2019-04-07T05:43:07.310Z,88.60
2019-04-07T05:45:37.610Z,88.40
2019-04-07T05:48:08.176Z,88.20
2019-04-07T05:50:37.600Z,88.30
2019-04-07T05:53:12.136Z,88.20
2019-04-07T05:55:38.132Z,88.40
2019-04-07T05:58:08.469Z,88.10
2019-04-07T06:00:39.122Z,88.10
2019-04-07T06:03:09.386Z,87.50
2019-04-07T06:05:38.842Z,87.90
2019-04-07T06:08:23.642Z,88.40
2019-04-07T06:10:39.161Z,88.70
2019-04-07T06:13:11.271Z,88.60
2019-04-07T06:15:40.289Z,88.70
2019-04-07T06:18:09.699Z,88.60
2019-04-07T06:20:39.223Z,88.70
2019-04-07T06:23:08.669Z,88.50
2019-04-07T06:25:41.784Z,88.40
2019-04-07T06:28:09.655Z,88.10
2019-04-07T06:30:50.643Z,87.00
2019-04-07T06:33:19.999Z,86.50
2019-04-07T06:35:49.920Z,86.40
2019-04-07T06:38:30.303Z,85.80
2019-04-07T06:40:54.237Z,85.50
2019-04-07T06:43:23.793Z,85.40
2019-04-07T06:45:55.031Z,85.20
2019-04-07T06:48:24.453Z,85.20
2019-04-07T06:51:01.766Z,85.40
2019-04-07T06:53:36.883Z,85.10
2019-04-07T06:56:07.822Z,84.40
2019-04-07T06:58:41.403Z,84.00
2019-04-07T07:01:17.150Z,84.20
2019-04-07T07:03:51.476Z,84.20
2019-04-07T07:06:39.462Z,83.20
2019-04-07T07:09:27.814Z,82.90
2019-04-07T07:12:20.616Z,83.30
2019-04-07T07:15:00.824Z,83.60
2019-04-07T07:17:38.736Z,83.60
2019-04-07T07:20:15.808Z,82.70
2019-04-07T07:22:49.899Z,82.10
2019-04-07T07:25:20.443Z,82.80
2019-04-07T07:27:49.844Z,82.40
2019-04-07T07:30:20.132Z,82.10
2019-04-07T07:32:50.587Z,82.20
2019-04-07T07:35:20.036Z,82.10
2019-04-07T07:37:49.965Z,82.60
2019-04-07T07:40:19.426Z,81.60
2019-04-07T07:42:50.701Z,81.60
2019-04-07T07:45:42.992Z,81.40
2019-04-07T07:48:10.881Z,80.20
2019-04-07T07:50:40.770Z,80.50
2019-04-07T07:53:10.516Z,79.70
2019-04-07T07:55:40.219Z,79.80
2019-04-07T07:58:09.642Z,79.60
2019-04-07T08:00:42.119Z,79.50
2019-04-07T08:03:10.289Z,79.30
2019-04-07T08:05:40.964Z,79.20
2019-04-07T08:08:10.371Z,80.00
2019-04-07T08:10:40.663Z,80.50
2019-04-07T08:13:10.273Z,80.20
2019-04-07T08:15:40.435Z,80.20
2019-04-07T08:18:09.849Z,79.20
2019-04-07T08:20:40.957Z,79.80
2019-04-07T08:23:12.122Z,79.80
2019-04-07T08:25:41.205Z,79.60
2019-04-07T08:28:10.660Z,79.50
2019-04-07T08:30:43.925Z,79.10
2019-04-07T08:33:11.048Z,78.70
2019-04-07T08:35:40.787Z,79.00
2019-04-07T08:38:10.993Z,78.70
2019-04-07T08:40:40.585Z,78.10
2019-04-07T08:43:09.876Z,78.60
2019-04-07T08:45:39.851Z,79.30
2019-04-07T08:48:09.271Z,78.50
2019-04-07T08:50:38.605Z,78.00
2019-04-07T08:53:10.310Z,77.40
2019-04-07T08:55:39.184Z,76.70
2019-04-07T08:58:08.515Z,77.00
2019-04-07T09:00:48.204Z,76.70
2019-04-07T09:03:17.094Z,76.90
2019-04-07T09:05:46.776Z,77.20
2019-04-07T09:08:17.231Z,77.10
2019-04-07T09:10:54.949Z,76.80
2019-04-07T09:13:25.086Z,75.50
2019-04-07T09:16:08.440Z,76.00
2019-04-07T09:18:52.913Z,75.50
2019-04-07T09:21:20.313Z,74.70
2019-04-07T09:24:07.169Z,74.40
2019-04-07T09:26:47.313Z,74.30
2019-04-07T09:29:31.340Z,75.20
2019-04-07T09:32:02.370Z,74.50
2019-04-07T09:34:36.274Z,73.70
2019-04-07T09:37:12.962Z,73.10
2019-04-07T09:40:00.509Z,72.90
2019-04-07T09:42:29.075Z,73.50
2019-04-07T09:45:00.061Z,74.10
2019-04-07T09:47:33.740Z,74.50
2019-04-07T09:50:21.822Z,74.20
2019-04-07T09:53:09.973Z,73.60
2019-04-07T09:55:41.146Z,74.60
2019-04-07T09:58:21.408Z,73.60
2019-04-07T10:00:58.535Z,73.50
2019-04-07T10:03:41.579Z,73.60
2019-04-07T10:06:15.562Z,74.00
2019-04-07T10:09:06.674Z,73.80
2019-04-07T10:11:47.361Z,71.60
2019-04-07T10:14:30.755Z,71.50
2019-04-07T10:17:19.976Z,71.40
2019-04-07T10:20:00.010Z,70.50
2019-04-07T10:22:34.092Z,70.20
2019-04-07T10:25:25.169Z,69.20
2019-04-07T10:28:22.383Z,69.40
2019-04-07T10:31:03.416Z,68.30
2019-04-07T10:33:43.810Z,68.20
2019-04-07T10:36:20.660Z,68.10
2019-04-07T10:39:07.343Z,67.70
2019-04-07T10:41:41.390Z,66.60
2019-04-07T10:44:18.145Z,67.10
2019-04-07T10:47:07.275Z,67.20
2019-04-07T10:49:40.875Z,67.20
2019-04-07T10:52:11.868Z,67.00
2019-04-07T10:55:01.201Z,67.50
2019-04-07T10:57:32.289Z,67.80
2019-04-07T11:00:09.226Z,67.40
2019-04-07T11:02:58.544Z,66.00
2019-04-07T11:05:41.551Z,67.10
2019-04-07T11:08:28.868Z,65.50
2019-04-07T11:11:15.682Z,67.00
2019-04-07T11:14:01.948Z,65.60
2019-04-07T11:16:36.585Z,64.40
2019-04-07T11:19:07.803Z,64.40
2019-04-07T11:21:39.321Z,64.80
2019-04-07T11:24:25.249Z,65.10
2019-04-07T11:27:02.967Z,64.80
2019-04-07T11:29:39.784Z,64.00
2019-04-07T11:32:26.128Z,63.30
2019-04-07T11:35:03.847Z,64.70
2019-04-07T11:37:51.767Z,64.50
2019-04-07T11:40:22.790Z,64.00
2019-04-07T11:43:10.708Z,64.10
2019-04-07T11:46:02.249Z,63.70
2019-04-07T11:48:33.559Z,63.30
2019-04-07T11:51:05.207Z,62.90
2019-04-07T11:53:39.604Z,61.90
2019-04-07T11:56:11.464Z,62.70
2019-04-07T11:58:43.056Z,63.50
2019-04-07T12:01:14.814Z,62.10
2019-04-07T12:03:47.455Z,62.80
2019-04-07T12:06:30.319Z,62.70
2019-04-07T12:09:13.389Z,61.30
2019-04-07T12:11:53.789Z,60.70
2019-04-07T12:14:30.768Z,59.80
2019-04-07T12:17:05.093Z,60.00
2019-04-07T12:19:37.145Z,60.30
2019-04-07T12:22:27.112Z,60.50
2019-04-07T12:25:05.488Z,60.50
2019-04-07T12:27:43.894Z,61.10
2019-04-07T12:30:16.480Z,60.90
2019-04-07T12:33:07.889Z,61.70
2019-04-07T12:35:41.586Z,62.50
2019-04-07T12:38:13.505Z,62.40
2019-04-07T12:40:45.244Z,62.40
2019-04-07T12:43:31.457Z,61.80
2019-04-07T12:46:05.842Z,62.10
2019-04-07T12:48:53.234Z,62.10
2019-04-07T12:51:27.583Z,61.40
2019-04-07T12:54:11.737Z,61.40
2019-04-07T12:57:02.515Z,62.00
2019-04-07T12:59:51.425Z,62.40
2019-04-07T13:05:28.559Z,62.90
2019-04-07T13:08:16.837Z,63.50
2019-04-07T13:10:57.196Z,63.00
2019-04-07T13:13:34.211Z,63.70
2019-04-07T13:16:10.114Z,63.70
2019-04-07T13:18:44.114Z,63.90
2019-04-07T13:21:15.524Z,63.40
2019-04-07T13:24:07.052Z,63.70
2019-04-07T13:26:37.438Z,62.20
2019-04-07T13:29:11.728Z,62.40
2019-04-07T13:31:59.102Z,62.00
2019-04-07T13:34:35.871Z,62.80
2019-04-07T13:37:20.016Z,62.70
2019-04-07T13:39:51.114Z,62.50
2019-04-07T13:42:24.873Z,62.30
2019-04-07T13:45:10.175Z,61.90
2019-04-07T13:47:44.859Z,60.40
2019-04-07T13:50:16.453Z,60.50
2019-04-07T13:53:03.011Z,59.60
2019-04-07T13:55:49.854Z,59.80
2019-04-07T13:58:20.840Z,59.70
2019-04-07T14:00:58.381Z,59.80
2019-04-07T14:03:30.442Z,59.90
2019-04-07T14:06:14.306Z,60.20
2019-04-07T14:09:00.037Z,60.40
2019-04-07T14:11:34.002Z,60.50
2019-04-07T14:14:18.013Z,61.20
2019-04-07T14:16:51.743Z,62.00
2019-04-07T14:19:35.398Z,62.20
2019-04-07T14:22:10.103Z,62.50
2019-04-07T14:24:41.484Z,63.20
2019-04-07T14:27:18.664Z,62.40
2019-04-07T14:29:52.497Z,62.20
2019-04-07T14:32:26.286Z,62.90
2019-04-07T14:35:14.074Z,61.70
2019-04-07T14:37:46.242Z,61.40
2019-04-07T14:40:26.713Z,61.30
2019-04-07T14:42:58.219Z,61.80
2019-04-07T14:45:47.574Z,62.20
2019-04-07T14:48:33.562Z,62.60
2019-04-07T14:51:07.375Z,62.60
2019-04-07T14:53:38.278Z,62.30
2019-04-07T14:56:09.934Z,62.30
2019-04-07T14:58:48.507Z,62.20
2019-04-07T15:01:20.244Z,61.60
2019-04-07T15:03:50.079Z,61.50
2019-04-07T15:06:19.405Z,62.20
2019-04-07T15:09:08.643Z,61.90
2019-04-07T15:11:39.738Z,61.70
2019-04-07T15:14:11.272Z,61.80
2019-04-07T15:16:40.017Z,62.40
2019-04-07T15:19:09.638Z,62.30
2019-04-07T15:21:40.144Z,61.80
2019-04-07T15:24:11.247Z,61.60
2019-04-07T15:26:40.622Z,61.30
2019-04-07T15:29:10.842Z,61.30
2019-04-07T15:31:40.633Z,61.00
2019-04-07T15:34:11.935Z,61.10
2019-04-07T15:36:41.463Z,61.20
2019-04-07T15:39:11.017Z,61.30
2019-04-07T15:41:42.564Z,61.10
2019-04-07T15:44:14.078Z,61.40
2019-04-07T15:46:42.680Z,61.80
2019-04-07T15:49:12.693Z,61.60
2019-04-07T15:51:42.056Z,61.90
2019-04-07T15:54:11.348Z,61.40
2019-04-07T15:56:41.286Z,61.30
2019-04-07T15:59:10.587Z,61.40
2019-04-07T16:01:40.397Z,61.00
2019-04-07T16:04:09.820Z,61.70
2019-04-07T16:06:39.100Z,61.80
2019-04-07T16:09:13.933Z,61.90
2019-04-07T16:11:42.356Z,62.50
2019-04-07T16:14:13.587Z,62.70
2019-04-07T16:16:42.801Z,62.50
2019-04-07T16:19:17.629Z,62.60
2019-04-07T16:21:44.051Z,62.50
2019-04-07T16:24:13.633Z,62.30
2019-04-07T16:26:43.279Z,61.80
2019-04-07T16:29:15.485Z,61.90
2019-04-07T16:31:43.644Z,61.70
2019-04-07T16:34:13.209Z,61.60
2019-04-07T16:36:43.310Z,61.80
2019-04-07T16:39:13.542Z,62.00
2019-04-07T16:41:45.349Z,61.90
2019-04-07T16:44:13.956Z,62.50
2019-04-07T16:46:43.727Z,62.00
2019-04-07T16:49:13.719Z,62.30
2019-04-07T16:51:44.786Z,62.20
2019-04-07T16:54:14.422Z,62.70
2019-04-07T16:56:45.500Z,62.70
2019-04-07T16:59:15.574Z,62.60
2019-04-07T17:01:45.569Z,62.80
2019-04-07T17:04:15.840Z,63.20
2019-04-07T17:06:45.294Z,63.00
2019-04-07T17:09:23.045Z,63.00
2019-04-07T17:11:50.497Z,64.10
2019-04-07T17:14:20.041Z,66.10
2019-04-07T17:16:49.318Z,67.10
2019-04-07T17:19:19.915Z,66.80
2019-04-07T17:21:50.143Z,66.30
2019-04-07T17:24:19.706Z,66.90
2019-04-07T17:26:49.771Z,67.60
2019-04-07T17:29:21.313Z,67.80
2019-04-07T17:31:50.834Z,67.60
2019-04-07T17:34:20.496Z,67.50
2019-04-07T17:36:55.518Z,67.70
2019-04-07T17:39:26.102Z,67.90
2019-04-07T17:41:57.350Z,68.90
2019-04-07T17:44:28.631Z,69.20
2019-04-07T17:47:15.817Z,69.90
2019-04-07T17:50:04.178Z,69.90
2019-04-07T17:52:53.606Z,70.10
2019-04-07T17:55:42.158Z,70.40
2019-04-07T17:58:15.992Z,71.00
2019-04-07T18:01:06.227Z,71.50
2019-04-07T18:03:45.350Z,71.70
2019-04-07T18:06:32.371Z,72.20
2019-04-07T18:09:20.914Z,72.80
2019-04-07T18:12:12.749Z,72.40
2019-04-07T18:14:57.735Z,72.40
2019-04-07T18:17:48.397Z,73.40
2019-04-07T18:20:23.945Z,73.70
2019-04-07T18:22:58.158Z,73.50
2019-04-07T18:25:33.425Z,73.30
2019-04-07T18:28:10.409Z,72.90
2019-04-07T18:30:51.575Z,73.20
2019-04-07T18:33:38.755Z,73.40
2019-04-07T18:36:25.691Z,73.20
2019-04-07T18:39:06.561Z,73.30
2019-04-07T18:41:44.696Z,74.10
2019-04-07T18:44:25.128Z,75.10
2019-04-07T18:46:57.117Z,75.60
2019-04-07T18:49:31.432Z,75.70
2019-04-07T18:52:01.550Z,75.00
2019-04-07T18:54:42.303Z,74.40
2019-04-07T18:57:14.026Z,74.10
2019-04-07T19:00:04.268Z,73.90
2019-04-07T19:02:50.419Z,74.10
2019-04-07T19:05:24.218Z,74.30
2019-04-07T19:08:00.864Z,74.30
2019-04-07T19:10:35.595Z,74.10
2019-04-07T19:13:17.087Z,74.20
2019-04-07T19:15:47.858Z,74.70
2019-04-07T19:18:32.554Z,74.70
2019-04-07T19:21:03.538Z,74.80
2019-04-07T19:23:34.632Z,75.20
2019-04-07T19:26:08.093Z,75.10
2019-04-07T19:28:39.012Z,75.20
2019-04-07T19:31:16.263Z,75.40
2019-04-07T19:33:45.494Z,75.50
2019-04-07T19:36:18.057Z,75.70
2019-04-07T19:38:54.950Z,76.30
2019-04-07T19:41:41.083Z,76.90
2019-04-07T19:44:15.392Z,77.40
2019-04-07T19:47:01.515Z,77.40
2019-04-07T19:49:36.789Z,77.00
2019-04-07T19:52:25.024Z,76.70
2019-04-07T19:55:02.179Z,76.90
2019-04-07T19:57:36.488Z,76.80
2019-04-07T20:00:16.170Z,77.10
2019-04-07T20:02:57.394Z,77.00
2019-04-07T20:05:40.863Z,76.90
2019-04-07T20:08:20.220Z,77.10
2019-04-07T20:10:59.801Z,77.40
2019-04-07T20:13:36.562Z,77.60
2019-04-07T20:16:12.905Z,77.90
2019-04-07T20:18:44.756Z,77.80
2019-04-07T20:21:17.583Z,77.80
2019-04-07T20:24:01.473Z,77.90
2019-04-07T20:26:46.447Z,78.20
2019-04-07T20:29:17.358Z,78.40
2019-04-07T20:31:54.709Z,78.60
2019-04-07T20:34:28.687Z,79.20
2019-04-07T20:37:05.361Z,79.60
2019-04-07T20:39:36.714Z,79.70
2019-04-07T20:42:13.456Z,79.90
2019-04-07T20:44:43.376Z,80.00
2019-04-07T20:47:17.604Z,80.60
2019-04-07T20:49:51.680Z,80.60
2019-04-07T20:52:34.911Z,80.60
2019-04-07T20:55:13.581Z,81.00
2019-04-07T20:57:54.031Z,80.90
2019-04-07T21:00:54.205Z,81.20
2019-04-07T21:03:30.458Z,81.40
2019-04-07T21:06:04.543Z,81.50
2019-04-07T21:08:35.654Z,81.90
2019-04-07T21:11:07.767Z,82.30
2019-04-07T21:13:47.181Z,82.40
2019-04-07T21:16:34.372Z,82.00
2019-04-07T21:19:11.321Z,81.90
2019-04-07T21:21:46.487Z,81.90
2019-04-07T21:24:21.144Z,82.00
2019-04-07T21:27:02.473Z,82.20
2019-04-07T21:29:49.359Z,82.40
2019-04-07T21:32:23.403Z,82.50
2019-04-07T21:35:10.884Z,82.60
2019-04-07T21:41:00.178Z,82.50
2019-04-07T21:43:37.052Z,82.40
2019-04-07T21:46:22.689Z,82.20
2019-04-07T21:48:58.039Z,82.20
2019-04-07T21:51:29.042Z,82.30
2019-04-07T21:54:04.191Z,82.40
2019-04-07T21:56:47.671Z,82.30
2019-04-07T21:59:35.392Z,82.00
2019-04-07T22:02:21.978Z,82.00
2019-04-07T22:05:09.722Z,82.10
2019-04-07T22:07:46.886Z,82.30
2019-04-07T22:10:18.746Z,82.30
2019-04-07T22:12:48.194Z,82.50
2019-04-07T22:15:17.574Z,83.10
2019-04-07T22:17:47.806Z,83.30
2019-04-07T22:20:20.088Z,83.30
2019-04-07T22:22:49.401Z,83.00
2019-04-07T22:25:22.685Z,82.80
2019-04-07T22:27:54.446Z,82.80
2019-04-07T22:30:24.139Z,82.90
2019-04-07T22:32:55.546Z,83.00
2019-04-07T22:35:25.021Z,83.10
2019-04-07T22:37:54.756Z,83.10
2019-04-07T22:40:26.477Z,83.00
2019-04-07T22:42:56.248Z,83.30
2019-04-07T22:45:28.613Z,83.30
2019-04-07T22:47:57.194Z,83.50
2019-04-07T22:50:28.431Z,83.80
2019-04-07T22:52:57.896Z,84.00
2019-04-07T22:55:27.266Z,84.00
2019-04-07T22:57:56.602Z,84.00
2019-04-07T23:00:26.895Z,83.90
2019-04-07T23:02:56.426Z,83.70
2019-04-07T23:05:25.765Z,83.60
2019-04-07T23:07:55.139Z,83.50
2019-04-07T23:10:25.159Z,83.70
2019-04-07T23:12:55.239Z,83.70
2019-04-07T23:15:37.330Z,83.70
2019-04-07T23:17:55.880Z,83.60
2019-04-07T23:20:25.233Z,83.60
2019-04-07T23:22:54.547Z,83.80
2019-04-07T23:25:24.831Z,84.20
2019-04-07T23:27:54.331Z,84.40
2019-04-07T23:30:26.465Z,84.90
2019-04-07T23:32:55.835Z,84.70
2019-04-07T23:35:25.139Z,84.40
2019-04-07T23:37:55.255Z,84.50
2019-04-07T23:40:24.779Z,84.70
2019-04-07T23:42:55.031Z,84.60
2019-04-07T23:45:25.315Z,84.50
2019-04-07T23:48:02.982Z,84.70
2019-04-07T23:50:32.303Z,84.70
2019-04-07T23:53:21.412Z,84.50
2019-04-07T23:55:50.852Z,84.70
2019-04-07T23:58:20.914Z,84.90
